Messwerte Pekoa

Temperatur

Temperatur
°C
1614837600 17.00 17.00 25
1614841200 18.00 18.00
1614844800 19.00 19.00
1614848400 20.00 20.00 24
1614852000 21.00 21.00 24
1614855600 22.00 22.00
1614859200 23.00 23.00
1614862800 0.00 0.00 24
1614866400 1.00 1.00
1614870000 2.00 2.00 24
1614873600 3.00 3.00 24
1614877200 4.00 4.00
1614880800 5.00 5.00 24
1614884400 6.00 6.00 24
1614888000 7.00 7.00 24
1614891600 8.00 8.00 24
1614895200 9.00 9.00 24
1614898800 10.00 10.00 25
1614902400 11.00 11.00 25
1614906000 12.00 12.00 25
1614909600 13.00 13.00
1614913200 14.00 14.00 25
1614916800 15.00 15.00 25
1614920400 16.00 16.00 25

Aktuellste Messwerte

Wettercharakter
Wetter: trüb und nass
Temperatur
25 °C
Feuchtigkeit
94 %
Wind
0 km/h, -
Luftdruck
1006 hPa
Messzeit: 5. März 2021, 17.00Datenquelle: METAR

Weitere Messstationen in der Nähe

Messstation Temperatur Entfernung
Port Vila 25 °C 269 km

Wind

Windrichtung Böen Mittelwind
° km/h km/h
1614837600 17.00 16.00 - 17.00 0
1614841200 18.00 17.00 - 18.00
1614844800 19.00 18.00 - 19.00
1614848400 20.00 19.00 - 20.00 0
1614852000 21.00 20.00 - 21.00 0
1614855600 22.00 21.00 - 22.00
1614859200 23.00 22.00 - 23.00
1614862800 0.00 23.00 - 0.00 0
1614866400 1.00 0.00 - 1.00
1614870000 2.00 1.00 - 2.00 5
1614873600 3.00 2.00 - 3.00 5
1614877200 4.00 3.00 - 4.00
1614880800 5.00 4.00 - 5.00 0
1614884400 6.00 5.00 - 6.00 0
1614888000 7.00 6.00 - 7.00 5
1614891600 8.00 7.00 - 8.00 360° 5
1614895200 9.00 8.00 - 9.00 10° 5
1614898800 10.00 9.00 - 10.00 340° 5
1614902400 11.00 10.00 - 11.00 0
1614906000 12.00 11.00 - 12.00 0
1614909600 13.00 12.00 - 13.00
1614913200 14.00 13.00 - 14.00 0
1614916800 15.00 14.00 - 15.00 0
1614920400 16.00 15.00 - 16.00 0

Ihre Wetterstation

Fehlt Ihre Wetterstation auf unserem Portal?

Schreiben Sie an network@meteonews.ch

Klima

Wann ist es am wärmsten? Wann regnet es am wenigsten? Unsere Klimadaten geben Auskunft.